createdAt,value
2023-10-21T00:03:03.771Z,10.52
2023-10-21T00:08:05.770Z,10.39
2023-10-21T00:13:07.501Z,10.47
2023-10-21T00:18:09.226Z,10.43
2023-10-21T00:23:10.984Z,10.46
2023-10-21T00:28:12.663Z,10.33
2023-10-21T00:33:15.390Z,10.37
2023-10-21T00:38:17.260Z,10.44
2023-10-21T00:43:38.563Z,10.28
2023-10-21T00:48:41.432Z,10.22
2023-10-21T00:53:44.031Z,10.25
2023-10-21T00:58:45.905Z,10.37
2023-10-21T01:03:48.351Z,10.20
2023-10-21T01:08:50.386Z,10.31
2023-10-21T01:13:52.987Z,10.26
2023-10-21T01:18:54.749Z,10.09
2023-10-21T01:23:56.468Z,9.97
2023-10-21T01:28:58.201Z,9.97
2023-10-21T01:34:00.040Z,10.15
2023-10-21T01:39:02.679Z,10.03
2023-10-21T01:44:04.519Z,10.01
2023-10-21T01:49:06.286Z,10.12
2023-10-21T01:54:08.042Z,10.18
2023-10-21T01:59:09.799Z,10.14
2023-10-21T02:04:11.594Z,10.20
2023-10-21T02:09:13.505Z,10.17
2023-10-21T02:14:15.809Z,10.13
2023-10-21T02:19:17.938Z,10.21
2023-10-21T02:24:19.735Z,10.24
2023-10-21T02:29:21.519Z,10.20
2023-10-21T02:34:24.104Z,10.29
2023-10-21T02:39:26.172Z,10.29
2023-10-21T02:44:29.691Z,10.22
2023-10-21T02:49:31.890Z,10.22
2023-10-21T02:54:34.441Z,10.31
2023-10-21T02:59:36.802Z,10.11
2023-10-21T03:04:38.568Z,10.17
2023-10-21T03:09:40.271Z,10.13
2023-10-21T03:14:42.017Z,10.19
2023-10-21T03:19:43.861Z,9.94
2023-10-21T03:24:45.620Z,9.77
2023-10-21T03:29:47.350Z,9.60
2023-10-21T03:34:49.044Z,9.56
2023-10-21T03:39:50.767Z,9.53
2023-10-21T03:44:52.992Z,9.54
2023-10-21T03:49:54.734Z,9.45
2023-10-21T03:54:56.562Z,9.29
2023-10-21T04:00:01.240Z,9.21
2023-10-21T04:05:03.134Z,9.19
2023-10-21T04:10:05.529Z,9.20
2023-10-21T04:15:11.568Z,9.16
2023-10-21T04:20:14.192Z,9.04
2023-10-21T04:25:16.637Z,9.03
2023-10-21T04:30:18.363Z,9.03
2023-10-21T04:35:20.644Z,9.14
2023-10-21T04:40:22.432Z,9.07
2023-10-21T04:45:24.401Z,9.02
2023-10-21T04:50:28.209Z,8.94
2023-10-21T04:55:30.172Z,8.92
2023-10-21T05:00:32.093Z,8.76
2023-10-21T05:05:36.024Z,8.65
2023-10-21T05:10:37.866Z,8.43
2023-10-21T05:15:39.858Z,8.51
2023-10-21T05:20:41.545Z,8.44
2023-10-21T05:25:43.872Z,8.42
2023-10-21T05:30:45.654Z,8.46
2023-10-21T05:35:47.370Z,8.42
2023-10-21T05:40:49.140Z,8.29
2023-10-21T05:45:50.871Z,8.33
2023-10-21T05:50:52.570Z,8.15
2023-10-21T05:55:56.854Z,8.30
2023-10-21T06:01:06.711Z,8.54
2023-10-21T06:06:09.167Z,8.74
2023-10-21T06:11:11.060Z,8.91
2023-10-21T06:16:12.832Z,8.93
2023-10-21T06:21:14.611Z,9.17
2023-10-21T06:26:16.326Z,9.40
2023-10-21T06:31:18.037Z,9.31
2023-10-21T06:36:20.302Z,9.33
2023-10-21T06:41:22.661Z,9.51
2023-10-21T06:46:25.070Z,9.45
2023-10-21T06:51:27.908Z,9.75
2023-10-21T06:56:29.735Z,9.84
2023-10-21T07:01:31.471Z,10.36
2023-10-21T07:06:33.345Z,11.08
2023-10-21T07:11:35.105Z,10.92
2023-10-21T07:16:36.883Z,10.82
2023-10-21T07:21:38.832Z,11.28
2023-10-21T07:26:40.549Z,11.52
2023-10-21T07:31:44.260Z,12.79
2023-10-21T07:36:45.972Z,13.58
2023-10-21T07:41:47.657Z,14.14
2023-10-21T07:46:49.401Z,15.02
2023-10-21T07:51:52.236Z,15.72
2023-10-21T07:56:55.245Z,15.75
2023-10-21T08:01:58.337Z,16.31
2023-10-21T08:07:01.844Z,16.74
2023-10-21T08:12:03.813Z,18.17
2023-10-21T08:17:05.637Z,19.11
2023-10-21T08:22:07.642Z,18.03
2023-10-21T08:27:09.479Z,18.21
2023-10-21T08:32:11.212Z,18.63
2023-10-21T08:37:12.908Z,19.11
2023-10-21T08:42:18.209Z,18.61
2023-10-21T08:47:20.983Z,18.83
2023-10-21T08:52:22.798Z,19.55
2023-10-21T08:57:25.383Z,19.60
2023-10-21T09:02:27.486Z,19.69
2023-10-21T09:07:45.568Z,19.32
2023-10-21T09:12:47.421Z,18.96
2023-10-21T09:17:53.585Z,19.27
2023-10-21T09:23:03.960Z,19.26
2023-10-21T09:28:06.003Z,19.24
2023-10-21T09:33:10.474Z,19.61
2023-10-21T09:38:19.632Z,20.66
2023-10-21T09:43:22.906Z,21.16
2023-10-21T09:48:26.846Z,22.23
2023-10-21T09:53:39.790Z,22.73
2023-10-21T09:58:42.242Z,22.66
2023-10-21T10:03:44.970Z,22.74
2023-10-21T10:08:48.973Z,20.12
2023-10-21T10:13:51.043Z,20.73
2023-10-21T10:18:57.093Z,21.28
2023-10-21T10:24:04.031Z,20.94
2023-10-21T10:29:26.806Z,22.57
2023-10-21T10:34:28.711Z,22.98
2023-10-21T10:39:40.157Z,23.64
2023-10-21T10:44:43.343Z,22.60
2023-10-21T10:49:55.542Z,21.52
2023-10-21T10:54:57.255Z,22.55
2023-10-21T10:59:59.103Z,23.94
2023-10-21T11:05:00.919Z,22.97
2023-10-21T11:10:03.753Z,22.65
2023-10-21T11:15:07.531Z,21.75
2023-10-21T11:20:10.017Z,24.28
2023-10-21T11:25:12.152Z,21.96
2023-10-21T11:30:13.987Z,23.25
2023-10-21T11:35:15.924Z,23.89
2023-10-21T11:40:18.389Z,23.56
2023-10-21T11:45:22.986Z,22.03
2023-10-21T11:50:25.900Z,23.51
2023-10-21T11:55:54.364Z,21.03
2023-10-21T12:01:16.240Z,22.32
2023-10-21T12:06:18.616Z,22.59
2023-10-21T12:11:29.450Z,22.04
2023-10-21T12:16:53.087Z,22.63
2023-10-21T12:22:08.578Z,22.58
2023-10-21T12:27:30.631Z,24.26
2023-10-21T12:32:32.429Z,24.29
2023-10-21T12:37:52.812Z,24.31
2023-10-21T12:43:12.824Z,23.97
2023-10-21T12:48:19.407Z,23.23
2023-10-21T12:53:21.726Z,22.27
2023-10-21T12:58:23.492Z,23.36
2023-10-21T13:03:25.315Z,23.23
2023-10-21T13:08:27.111Z,24.01
2023-10-21T13:13:29.363Z,23.01
2023-10-21T13:18:31.785Z,22.19
2023-10-21T13:23:35.962Z,21.20
2023-10-21T13:28:38.037Z,20.43
2023-10-21T13:33:39.788Z,20.42
2023-10-21T13:38:41.549Z,19.85
2023-10-21T13:43:43.612Z,19.63
2023-10-21T13:48:45.348Z,19.42
2023-10-21T13:53:47.096Z,19.79
2023-10-21T13:58:48.807Z,20.05
2023-10-21T14:03:50.647Z,19.58
2023-10-21T14:08:53.121Z,19.68
2023-10-21T14:13:55.205Z,19.72
2023-10-21T14:18:58.101Z,19.02
2023-10-21T14:23:59.790Z,18.82
2023-10-21T14:29:01.542Z,18.73
2023-10-21T14:34:03.295Z,18.43
2023-10-21T14:39:08.089Z,18.49
2023-10-21T14:44:10.226Z,18.62
2023-10-21T14:49:12.173Z,18.63
2023-10-21T14:54:14.458Z,18.32
2023-10-21T14:59:16.178Z,18.25
2023-10-21T15:04:18.084Z,17.88
2023-10-21T15:09:20.951Z,17.67
2023-10-21T15:14:34.258Z,17.29
2023-10-21T15:19:48.115Z,17.08
2023-10-21T15:24:51.609Z,16.67
2023-10-21T15:29:55.820Z,16.31
2023-10-21T15:34:58.192Z,16.00
2023-10-21T15:40:01.579Z,15.79
2023-10-21T15:45:03.677Z,15.63
2023-10-21T15:50:06.454Z,15.38
2023-10-21T15:55:09.070Z,15.18
2023-10-21T16:00:15.963Z,14.91
2023-10-21T16:05:18.056Z,14.78
2023-10-21T16:10:19.759Z,14.67
2023-10-21T16:15:21.533Z,14.44
2023-10-21T16:20:23.390Z,14.13
2023-10-21T16:25:25.104Z,13.93
2023-10-21T16:30:28.099Z,14.05
2023-10-21T16:35:29.871Z,13.90
2023-10-21T16:40:31.822Z,13.65
2023-10-21T16:45:33.560Z,13.29
2023-10-21T16:50:35.267Z,13.12
2023-10-21T16:55:37.145Z,12.82
2023-10-21T17:00:38.843Z,12.83
2023-10-21T17:05:40.582Z,13.02
2023-10-21T17:10:42.288Z,12.94
2023-10-21T17:15:44.930Z,12.93
2023-10-21T17:20:46.715Z,12.84
2023-10-21T17:25:48.668Z,12.51
2023-10-21T17:30:50.488Z,12.30
2023-10-21T17:35:52.283Z,12.45
2023-10-21T17:40:53.982Z,12.39
2023-10-21T17:45:55.808Z,12.38
2023-10-21T17:50:57.789Z,12.25
2023-10-21T17:56:00.309Z,12.17
2023-10-21T18:01:05.552Z,12.30
2023-10-21T18:06:07.475Z,12.35
2023-10-21T18:11:09.161Z,12.17
2023-10-21T18:16:11.011Z,12.48
2023-10-21T18:21:12.810Z,12.39
2023-10-21T18:26:14.560Z,12.52
2023-10-21T18:31:16.385Z,12.47
2023-10-21T18:36:18.351Z,12.52
2023-10-21T18:41:20.149Z,12.68
2023-10-21T18:46:21.949Z,12.82
2023-10-21T18:51:26.723Z,12.75
2023-10-21T18:56:28.664Z,13.00
2023-10-21T19:01:32.068Z,12.85
2023-10-21T19:06:37.412Z,12.91
2023-10-21T19:11:39.478Z,12.84
2023-10-21T19:16:41.205Z,12.85
2023-10-21T19:21:47.467Z,12.93
2023-10-21T19:26:49.349Z,12.68
2023-10-21T19:31:51.304Z,12.79
2023-10-21T19:36:53.157Z,12.65
2023-10-21T19:41:57.739Z,12.68
2023-10-21T19:47:04.589Z,12.62
2023-10-21T19:52:06.972Z,12.71
2023-10-21T19:57:09.028Z,12.73
2023-10-21T20:02:11.701Z,12.76
2023-10-21T20:07:13.423Z,12.98
2023-10-21T20:12:15.141Z,12.62
2023-10-21T20:17:16.836Z,12.78
2023-10-21T20:22:18.525Z,12.81
2023-10-21T20:27:20.677Z,13.00
2023-10-21T20:32:22.413Z,13.09
2023-10-21T20:37:27.101Z,12.94
2023-10-21T20:42:28.998Z,12.76
2023-10-21T20:47:30.943Z,12.92
2023-10-21T20:52:32.697Z,12.91
2023-10-21T20:57:34.443Z,12.67
2023-10-21T21:02:36.336Z,12.85
2023-10-21T21:07:50.401Z,12.83
2023-10-21T21:12:55.551Z,12.78
2023-10-21T21:17:57.492Z,12.75
2023-10-21T21:22:59.222Z,12.88
2023-10-21T21:28:00.956Z,12.67
2023-10-21T21:33:02.735Z,12.72
2023-10-21T21:38:05.542Z,12.72
2023-10-21T21:43:07.364Z,12.83
2023-10-21T21:48:09.517Z,12.96
2023-10-21T21:53:12.380Z,12.87
2023-10-21T21:58:14.310Z,12.83
2023-10-21T22:03:16.117Z,12.99
2023-10-21T22:08:17.880Z,13.18
2023-10-21T22:13:19.885Z,13.09
2023-10-21T22:18:22.626Z,13.04
2023-10-21T22:23:27.571Z,12.99
2023-10-21T22:28:29.331Z,12.92
2023-10-21T22:33:31.102Z,13.01
2023-10-21T22:38:33.009Z,12.94
2023-10-21T22:43:37.574Z,13.07
2023-10-21T22:48:39.383Z,12.98
2023-10-21T22:53:41.208Z,13.11
2023-10-21T22:58:43.479Z,12.89
2023-10-21T23:03:46.382Z,12.95
2023-10-21T23:08:49.677Z,12.95
2023-10-21T23:13:52.679Z,12.81
2023-10-21T23:18:54.814Z,12.90
2023-10-21T23:23:56.632Z,12.82
2023-10-21T23:28:58.353Z,12.86
2023-10-21T23:34:00.059Z,12.77
2023-10-21T23:39:01.865Z,12.84
2023-10-21T23:44:03.647Z,12.69
2023-10-21T23:49:05.455Z,12.76
2023-10-21T23:54:07.420Z,12.81
2023-10-21T23:59:09.120Z,12.82
